createdAt,value
2024-04-23T00:00:19.537Z,1005.77
2024-04-23T00:01:19.505Z,1005.80
2024-04-23T00:02:19.496Z,1005.83
2024-04-23T00:03:19.605Z,1005.86
2024-04-23T00:04:19.564Z,1005.82
2024-04-23T00:05:19.527Z,1005.77
2024-04-23T00:06:19.442Z,1005.80
2024-04-23T00:07:19.434Z,1005.81
2024-04-23T00:08:19.434Z,1005.77
2024-04-23T00:09:19.421Z,1005.71
2024-04-23T00:10:19.405Z,1005.72
2024-04-23T00:11:19.470Z,1005.70
2024-04-23T00:12:19.360Z,1005.73
2024-04-23T00:13:19.347Z,1005.69
2024-04-23T00:14:19.372Z,1005.68
2024-04-23T00:15:19.325Z,1005.70
2024-04-23T00:16:19.314Z,1005.72
2024-04-23T00:17:19.324Z,1005.66
2024-04-23T00:18:19.394Z,1005.73
2024-04-23T00:19:19.290Z,1005.67
2024-04-23T00:20:19.268Z,1005.64
2024-04-23T00:21:19.248Z,1005.63
2024-04-23T00:22:19.243Z,1005.66
2024-04-23T00:23:19.245Z,1005.61
2024-04-23T00:24:19.249Z,1005.69
2024-04-23T00:25:19.201Z,1005.61
2024-04-23T00:26:19.188Z,1005.64
2024-04-23T00:27:19.167Z,1005.57
2024-04-23T00:28:19.186Z,1005.60
2024-04-23T00:29:19.169Z,1005.60
2024-04-23T00:30:19.238Z,1005.59
2024-04-23T00:31:19.120Z,1005.62
2024-04-23T00:32:19.149Z,1005.57
2024-04-23T00:33:19.161Z,1005.54
2024-04-23T00:34:19.080Z,1005.56
2024-04-23T00:35:19.074Z,1005.55
2024-04-23T00:36:19.062Z,1005.54
2024-04-23T00:37:19.041Z,1005.56
2024-04-23T00:38:19.047Z,1005.56
2024-04-23T00:39:19.025Z,1005.54
2024-04-23T00:40:19.018Z,1005.56
2024-04-23T00:41:19.012Z,1005.55
2024-04-23T00:42:18.998Z,1005.51
2024-04-23T00:43:18.990Z,1005.54
2024-04-23T00:44:18.960Z,1005.49
2024-04-23T00:45:18.948Z,1005.52
2024-04-23T00:46:18.936Z,1005.48
2024-04-23T00:47:18.960Z,1005.50
2024-04-23T00:48:18.999Z,1005.44
2024-04-23T00:49:18.940Z,1005.46
2024-04-23T00:50:18.918Z,1005.44
2024-04-23T00:51:18.870Z,1005.47
2024-04-23T00:52:18.881Z,1005.44
2024-04-23T00:53:18.873Z,1005.44
2024-04-23T00:54:18.831Z,1005.45
2024-04-23T00:55:18.826Z,1005.51
2024-04-23T00:56:18.824Z,1005.48
2024-04-23T00:57:18.806Z,1005.47
2024-04-23T00:58:18.795Z,1005.45
2024-04-23T00:59:18.776Z,1005.56
2024-04-23T01:00:18.777Z,1005.49
2024-04-23T01:01:18.737Z,1005.44
2024-04-23T01:02:18.766Z,1005.53
2024-04-23T01:03:18.811Z,1005.45
2024-04-23T01:04:18.706Z,1005.43
2024-04-23T01:05:18.708Z,1005.48
2024-04-23T01:06:18.678Z,1005.54
2024-04-23T01:07:18.686Z,1005.48
2024-04-23T01:08:18.645Z,1005.57
2024-04-23T01:09:18.640Z,1005.54
2024-04-23T01:10:18.632Z,1005.48
2024-04-23T01:11:18.612Z,1005.46
2024-04-23T01:12:18.748Z,1005.53
2024-04-23T01:13:18.580Z,1005.47
2024-04-23T01:14:18.567Z,1005.44
2024-04-23T01:15:18.562Z,1005.59
2024-04-23T01:16:18.611Z,1005.58
2024-04-23T01:17:18.671Z,1005.52
2024-04-23T01:18:18.561Z,1005.53
2024-04-23T01:19:18.503Z,1005.58
2024-04-23T01:20:18.507Z,1005.57
2024-04-23T01:21:18.513Z,1005.57
2024-04-23T01:22:18.477Z,1005.51
2024-04-23T01:23:18.456Z,1005.54
2024-04-23T01:24:18.455Z,1005.59
2024-04-23T01:25:18.439Z,1005.51
2024-04-23T01:26:18.431Z,1005.54
2024-04-23T01:27:18.443Z,1005.53
2024-04-23T01:28:18.402Z,1005.53
2024-04-23T01:29:18.389Z,1005.52
2024-04-23T01:30:18.374Z,1005.53
2024-04-23T01:31:18.371Z,1005.46
2024-04-23T01:32:18.394Z,1005.49
2024-04-23T01:33:18.397Z,1005.65
2024-04-23T01:34:18.432Z,1005.59
2024-04-23T01:35:18.332Z,1005.59
2024-04-23T01:36:18.314Z,1005.57
2024-04-23T01:37:18.284Z,1005.50
2024-04-23T01:38:18.276Z,1005.58
2024-04-23T01:39:18.288Z,1005.54
2024-04-23T01:40:18.371Z,1005.52
2024-04-23T01:41:18.231Z,1005.49
2024-04-23T01:42:18.245Z,1005.49
2024-04-23T01:43:18.207Z,1005.45
2024-04-23T01:44:18.199Z,1005.43
2024-04-23T01:45:18.212Z,1005.42
2024-04-23T01:46:18.167Z,1005.47
2024-04-23T01:47:18.265Z,1005.44
2024-04-23T01:48:18.216Z,1005.46
2024-04-23T01:49:18.148Z,1005.45
2024-04-23T01:50:18.137Z,1005.42
2024-04-23T01:51:18.104Z,1005.44
2024-04-23T01:52:18.098Z,1005.40
2024-04-23T01:53:18.108Z,1005.39
2024-04-23T01:54:18.081Z,1005.40
2024-04-23T01:55:18.081Z,1005.41
2024-04-23T01:56:18.042Z,1005.42
2024-04-23T01:57:18.030Z,1005.43
2024-04-23T01:58:18.026Z,1005.40
2024-04-23T01:59:18.026Z,1005.38
2024-04-23T02:00:18.070Z,1005.37
2024-04-23T02:01:17.982Z,1005.37
2024-04-23T02:02:17.983Z,1005.40
2024-04-23T02:03:18.008Z,1005.38
2024-04-23T02:04:18.772Z,1005.37
2024-04-23T02:05:17.951Z,1005.38
2024-04-23T02:06:17.916Z,1005.37
2024-04-23T02:07:17.941Z,1005.36
2024-04-23T02:08:17.903Z,1005.26
2024-04-23T02:09:17.913Z,1005.28
2024-04-23T02:10:17.877Z,1005.32
2024-04-23T02:11:18.082Z,1005.26
2024-04-23T02:12:17.850Z,1005.27
2024-04-23T02:13:17.848Z,1005.25
2024-04-23T02:14:17.835Z,1005.20
2024-04-23T02:15:17.805Z,1005.23
2024-04-23T02:16:17.797Z,1005.21
2024-04-23T02:17:17.868Z,1005.22
2024-04-23T02:18:17.851Z,1005.21
2024-04-23T02:19:17.750Z,1005.16
2024-04-23T02:20:17.753Z,1005.21
2024-04-23T02:21:17.736Z,1005.19
2024-04-23T02:22:17.712Z,1005.15
2024-04-23T02:23:17.718Z,1005.16
2024-04-23T02:24:17.684Z,1005.16
2024-04-23T02:25:19.520Z,1005.12
2024-04-23T02:26:17.655Z,1005.11
2024-04-23T02:27:17.651Z,1005.17
2024-04-23T02:28:17.657Z,1005.15
2024-04-23T02:29:17.635Z,1005.20
2024-04-23T02:30:17.604Z,1005.18
2024-04-23T02:31:17.594Z,1005.19
2024-04-23T02:32:17.648Z,1005.20
2024-04-23T02:33:17.752Z,1005.21
2024-04-23T02:34:17.568Z,1005.18
2024-04-23T02:35:17.547Z,1005.23
2024-04-23T02:36:17.530Z,1005.19
2024-04-23T02:37:17.563Z,1005.24
2024-04-23T02:38:17.519Z,1005.18
2024-04-23T02:39:17.496Z,1005.14
2024-04-23T02:40:17.496Z,1005.22
2024-04-23T02:41:17.473Z,1005.20
2024-04-23T02:42:17.487Z,1005.17
2024-04-23T02:43:17.446Z,1005.22
2024-04-23T02:44:17.464Z,1005.18
2024-04-23T02:45:17.426Z,1005.13
2024-04-23T02:46:17.417Z,1005.13
2024-04-23T02:47:17.438Z,1005.20
2024-04-23T02:48:17.621Z,1005.18
2024-04-23T02:49:17.371Z,1005.13
2024-04-23T02:50:17.374Z,1005.16
2024-04-23T02:51:17.365Z,1005.18
2024-04-23T02:52:17.360Z,1005.19
2024-04-23T02:53:17.328Z,1005.17
2024-04-23T02:54:17.307Z,1005.14
2024-04-23T02:55:17.307Z,1005.17
2024-04-23T02:56:17.308Z,1005.14
2024-04-23T02:57:17.274Z,1005.18
2024-04-23T02:58:17.264Z,1005.15
2024-04-23T02:59:17.256Z,1005.16
2024-04-23T03:00:17.233Z,1005.21
2024-04-23T03:01:17.234Z,1005.14
2024-04-23T03:02:17.302Z,1005.12
2024-04-23T03:03:17.218Z,1005.19
2024-04-23T03:04:17.295Z,1005.15
2024-04-23T03:05:17.178Z,1005.16
2024-04-23T03:06:17.189Z,1005.15
2024-04-23T03:07:17.152Z,1005.09
2024-04-23T03:08:17.127Z,1005.14
2024-04-23T03:09:17.127Z,1005.14
2024-04-23T03:10:17.119Z,1005.13
2024-04-23T03:11:17.155Z,1005.06
2024-04-23T03:12:17.100Z,1005.11
2024-04-23T03:13:17.092Z,1005.11
2024-04-23T03:14:17.053Z,1005.09
2024-04-23T03:15:17.060Z,1005.09
2024-04-23T03:16:17.049Z,1005.05
2024-04-23T03:17:17.047Z,1005.07
2024-04-23T03:18:17.082Z,1005.11
2024-04-23T03:19:17.000Z,1005.09
2024-04-23T03:20:17.012Z,1005.10
2024-04-23T03:21:16.965Z,1005.05
2024-04-23T03:22:16.957Z,1005.10
2024-04-23T03:23:16.941Z,1005.08
2024-04-23T03:24:16.926Z,1005.10
2024-04-23T03:25:16.929Z,1005.10
2024-04-23T03:26:16.904Z,1005.11
2024-04-23T03:27:16.893Z,1005.09
2024-04-23T03:28:16.874Z,1005.10
2024-04-23T03:29:16.872Z,1005.09
2024-04-23T03:30:16.875Z,1005.09
2024-04-23T03:31:16.848Z,1005.10
2024-04-23T03:32:16.995Z,1005.10
2024-04-23T03:33:16.860Z,1005.09
2024-04-23T03:34:16.898Z,1005.10
2024-04-23T03:35:16.814Z,1005.15
2024-04-23T03:36:18.019Z,1005.12
2024-04-23T03:37:16.767Z,1005.17
2024-04-23T03:38:16.750Z,1005.20
2024-04-23T03:39:16.759Z,1005.18
2024-04-23T03:40:16.727Z,1005.18
2024-04-23T03:41:16.712Z,1005.18
2024-04-23T03:42:16.705Z,1005.15
2024-04-23T03:43:16.693Z,1005.11
2024-04-23T03:44:16.690Z,1005.09
2024-04-23T03:45:16.665Z,1005.21
2024-04-23T03:46:16.647Z,1005.13
2024-04-23T03:47:16.686Z,1005.17
2024-04-23T03:48:16.705Z,1005.23
2024-04-23T03:49:16.656Z,1005.22
2024-04-23T03:50:16.600Z,1005.25
2024-04-23T03:51:16.584Z,1005.28
2024-04-23T03:52:16.588Z,1005.28
2024-04-23T03:53:16.599Z,1005.29
2024-04-23T03:54:16.567Z,1005.27
2024-04-23T03:55:16.538Z,1005.26
2024-04-23T03:56:16.521Z,1005.27
2024-04-23T03:57:16.522Z,1005.26
2024-04-23T03:58:16.520Z,1005.28
2024-04-23T03:59:16.484Z,1005.26
2024-04-23T04:00:16.472Z,1005.28
2024-04-23T04:01:16.490Z,1005.19
2024-04-23T04:02:16.551Z,1005.22
2024-04-23T04:03:16.466Z,1005.18
2024-04-23T04:04:16.421Z,1005.24
2024-04-23T04:05:16.411Z,1005.15
2024-04-23T04:06:16.408Z,1005.23
2024-04-23T04:07:16.391Z,1005.25
2024-04-23T04:08:16.407Z,1005.23
2024-04-23T04:09:16.366Z,1005.25
2024-04-23T04:10:16.350Z,1005.29
2024-04-23T04:11:16.392Z,1005.26
2024-04-23T04:12:16.348Z,1005.25
2024-04-23T04:13:21.524Z,1005.28
2024-04-23T04:14:16.312Z,1005.31
2024-04-23T04:15:16.293Z,1005.27
2024-04-23T04:16:16.325Z,1005.29
2024-04-23T04:17:16.350Z,1005.32
2024-04-23T04:18:16.307Z,1005.29
2024-04-23T04:19:16.233Z,1005.26
2024-04-23T04:20:16.223Z,1005.33
2024-04-23T04:21:16.208Z,1005.31
2024-04-23T04:22:16.212Z,1005.29
2024-04-23T04:23:16.178Z,1005.29
2024-04-23T04:24:16.182Z,1005.34
2024-04-23T04:25:16.195Z,1005.34
2024-04-23T04:26:16.168Z,1005.36
2024-04-23T04:27:16.148Z,1005.41
2024-04-23T04:28:16.122Z,1005.29
2024-04-23T04:29:16.117Z,1005.36
2024-04-23T04:30:16.094Z,1005.34
2024-04-23T04:31:16.097Z,1005.31
2024-04-23T04:32:16.103Z,1005.32
2024-04-23T04:33:16.245Z,1005.28
2024-04-23T04:34:18.110Z,1005.30
2024-04-23T04:35:16.036Z,1005.31
2024-04-23T04:36:16.016Z,1005.31
2024-04-23T04:37:16.027Z,1005.31
2024-04-23T04:38:15.998Z,1005.29
2024-04-23T04:39:15.998Z,1005.26
2024-04-23T04:40:16.078Z,1005.28
2024-04-23T04:41:15.962Z,1005.23
2024-04-23T04:42:15.961Z,1005.25
2024-04-23T04:43:15.928Z,1005.21
2024-04-23T04:44:15.915Z,1005.24
2024-04-23T04:45:15.914Z,1005.19
2024-04-23T04:46:15.904Z,1005.20
2024-04-23T04:47:15.933Z,1005.25
2024-04-23T04:48:16.012Z,1005.22
2024-04-23T04:49:15.856Z,1005.30
2024-04-23T04:50:15.845Z,1005.30
2024-04-23T04:51:15.860Z,1005.28
2024-04-23T04:52:15.812Z,1005.33
2024-04-23T04:53:15.801Z,1005.30
2024-04-23T04:54:15.793Z,1005.37
2024-04-23T04:55:15.780Z,1005.31
2024-04-23T04:56:15.792Z,1005.30
2024-04-23T04:57:15.753Z,1005.30
2024-04-23T04:58:15.850Z,1005.30
2024-04-23T04:59:15.728Z,1005.33
2024-04-23T05:00:15.721Z,1005.33
2024-04-23T05:01:15.750Z,1005.33
2024-04-23T05:02:15.723Z,1005.24
2024-04-23T05:03:15.686Z,1005.29
2024-04-23T05:04:15.728Z,1005.33
2024-04-23T05:05:15.673Z,1005.29
2024-04-23T05:06:15.661Z,1005.28
2024-04-23T05:07:15.625Z,1005.28
2024-04-23T05:08:15.613Z,1005.29
2024-04-23T05:09:15.616Z,1005.30
2024-04-23T05:10:15.616Z,1005.30
2024-04-23T05:11:15.576Z,1005.28
2024-04-23T05:12:17.995Z,1005.27
2024-04-23T05:13:15.550Z,1005.29
2024-04-23T05:14:15.533Z,1005.26
2024-04-23T05:15:15.542Z,1005.30
2024-04-23T05:16:15.509Z,1005.23
2024-04-23T05:17:15.551Z,1005.22
2024-04-23T05:18:15.576Z,1005.27
2024-04-23T05:19:15.506Z,1005.30
2024-04-23T05:20:15.487Z,1005.28
2024-04-23T05:21:15.455Z,1005.30
2024-04-23T05:22:15.496Z,1005.30
2024-04-23T05:23:15.430Z,1005.21
2024-04-23T05:24:15.419Z,1005.30
2024-04-23T05:25:15.398Z,1005.26
2024-04-23T05:26:15.393Z,1005.22
2024-04-23T05:27:15.372Z,1005.20
2024-04-23T05:28:15.357Z,1005.18
2024-04-23T05:29:15.438Z,1005.21
2024-04-23T05:30:15.385Z,1005.21
2024-04-23T05:31:15.332Z,1005.19
2024-04-23T05:32:15.420Z,1005.23
2024-04-23T05:33:15.341Z,1005.15
2024-04-23T05:34:15.296Z,1005.12
2024-04-23T05:35:15.330Z,1005.16
2024-04-23T05:36:15.259Z,1005.16
2024-04-23T05:37:15.251Z,1005.16
2024-04-23T05:38:17.522Z,1005.17
2024-04-23T05:39:15.226Z,1005.14
2024-04-23T05:40:15.199Z,1005.18
2024-04-23T05:41:15.202Z,1005.20
2024-04-23T05:42:15.182Z,1005.16
2024-04-23T05:43:15.179Z,1005.18
2024-04-23T05:44:15.184Z,1005.16
2024-04-23T05:45:15.162Z,1005.19
2024-04-23T05:46:15.123Z,1005.20
2024-04-23T05:47:15.196Z,1005.19
2024-04-23T05:48:15.177Z,1005.25
2024-04-23T05:49:15.096Z,1005.26
2024-04-23T05:50:15.102Z,1005.23
2024-04-23T05:51:15.058Z,1005.23
2024-04-23T05:52:22.625Z,1005.21
2024-04-23T05:53:16.067Z,1005.14
2024-04-23T05:54:15.029Z,1005.15
2024-04-23T05:55:15.008Z,1005.14
2024-04-23T05:56:15.065Z,1005.16
2024-04-23T05:57:14.977Z,1005.17
2024-04-23T05:58:14.984Z,1005.15
2024-04-23T05:59:14.974Z,1005.16
2024-04-23T06:00:14.958Z,1005.17
2024-04-23T06:01:17.761Z,1005.19
2024-04-23T06:02:14.929Z,1005.23
2024-04-23T06:03:14.962Z,1005.17
2024-04-23T06:04:14.915Z,1005.12
2024-04-23T06:05:14.908Z,1005.14
2024-04-23T06:06:14.867Z,1005.18
2024-04-23T06:07:14.872Z,1005.18
2024-04-23T06:08:14.859Z,1005.08
2024-04-23T06:09:14.821Z,1005.12
2024-04-23T06:10:14.810Z,1005.13
2024-04-23T06:11:14.925Z,1005.10
2024-04-23T06:12:14.800Z,1005.11
2024-04-23T06:13:14.771Z,1005.14
2024-04-23T06:14:14.753Z,1005.19
2024-04-23T06:15:14.751Z,1005.14
2024-04-23T06:16:14.752Z,1005.16
2024-04-23T06:17:14.776Z,1005.19
2024-04-23T06:18:14.819Z,1005.16
2024-04-23T06:19:14.687Z,1005.19
2024-04-23T06:20:14.684Z,1005.18
2024-04-23T06:21:14.865Z,1005.15
2024-04-23T06:22:14.673Z,1005.23
2024-04-23T06:23:14.683Z,1005.21
2024-04-23T06:24:14.646Z,1005.20
2024-04-23T06:25:14.613Z,1005.22
2024-04-23T06:26:14.652Z,1005.23
2024-04-23T06:27:14.592Z,1005.16
2024-04-23T06:28:14.580Z,1005.19
2024-04-23T06:29:14.557Z,1005.20
2024-04-23T06:30:14.543Z,1005.17
2024-04-23T06:31:14.556Z,1005.21
2024-04-23T06:32:14.636Z,1005.13
2024-04-23T06:33:14.795Z,1005.15
2024-04-23T06:34:14.499Z,1005.09
2024-04-23T06:35:14.543Z,1005.15
2024-04-23T06:36:14.499Z,1005.06
2024-04-23T06:37:14.452Z,1005.09
2024-04-23T06:38:14.436Z,1005.09
2024-04-23T06:39:14.421Z,1005.03
2024-04-23T06:40:19.886Z,1005.08
2024-04-23T06:41:15.434Z,1005.09
2024-04-23T06:42:14.395Z,1005.11
2024-04-23T06:43:18.805Z,1005.07
2024-04-23T06:44:14.362Z,1005.02
2024-04-23T06:45:14.361Z,1005.01
2024-04-23T06:46:14.332Z,1004.93
2024-04-23T06:47:14.329Z,1005.03
2024-04-23T06:48:14.337Z,1004.99
2024-04-23T06:49:14.293Z,1005.01
2024-04-23T06:50:14.317Z,1005.05
2024-04-23T06:51:14.263Z,1005.05
2024-04-23T06:52:14.253Z,1005.06
2024-04-23T06:53:14.321Z,1004.98
2024-04-23T06:54:14.257Z,1005.01
2024-04-23T06:55:14.230Z,1004.97
2024-04-23T06:56:14.205Z,1005.02
2024-04-23T06:57:14.186Z,1005.01
2024-04-23T06:58:14.175Z,1005.01
2024-04-23T06:59:14.208Z,1004.98
2024-04-23T07:00:14.153Z,1005.02
2024-04-23T07:01:14.248Z,1005.04
2024-04-23T07:02:14.238Z,1005.08
2024-04-23T07:03:14.106Z,1005.06
2024-04-23T07:04:14.142Z,1005.11
2024-04-23T07:05:14.141Z,1005.00
2024-04-23T07:06:14.072Z,1005.08
2024-04-23T07:07:14.052Z,1005.08
2024-04-23T07:08:14.131Z,1005.04
2024-04-23T07:09:14.060Z,1005.03
2024-04-23T07:10:14.017Z,1005.09
2024-04-23T07:11:14.077Z,1005.11
2024-04-23T07:12:14.004Z,1005.07
2024-04-23T07:13:13.995Z,1005.04
2024-04-23T07:14:13.995Z,1005.10
2024-04-23T07:15:13.999Z,1005.01
2024-04-23T07:16:13.943Z,1005.02
2024-04-23T07:17:14.073Z,1005.03
2024-04-23T07:18:14.093Z,1004.97
2024-04-23T07:19:13.930Z,1004.99
2024-04-23T07:20:13.975Z,1005.13
2024-04-23T07:21:13.872Z,1005.03
2024-04-23T07:22:13.857Z,1004.98
2024-04-23T07:23:13.904Z,1004.98
2024-04-23T07:24:13.832Z,1004.90
2024-04-23T07:25:13.821Z,1004.93
2024-04-23T07:26:13.825Z,1004.92
2024-04-23T07:27:13.809Z,1005.00
2024-04-23T07:28:13.797Z,1004.88
2024-04-23T07:29:13.768Z,1004.96
2024-04-23T07:30:13.758Z,1004.83
2024-04-23T07:31:13.749Z,1004.96
2024-04-23T07:32:13.879Z,1004.84
2024-04-23T07:33:13.964Z,1004.89
2024-04-23T07:34:13.712Z,1004.90
2024-04-23T07:35:13.718Z,1004.85
2024-04-23T07:36:13.671Z,1004.90
2024-04-23T07:37:13.782Z,1004.89
2024-04-23T07:38:13.672Z,1004.85
2024-04-23T07:39:13.632Z,1004.80
2024-04-23T07:40:13.616Z,1004.84
2024-04-23T07:41:13.625Z,1004.91
2024-04-23T07:42:13.716Z,1004.89
2024-04-23T07:43:13.588Z,1004.94
2024-04-23T07:44:13.607Z,1004.89
2024-04-23T07:45:13.551Z,1004.85
2024-04-23T07:46:13.541Z,1004.86
2024-04-23T07:47:13.653Z,1004.87
2024-04-23T07:48:13.603Z,1004.90
2024-04-23T07:49:13.520Z,1004.85
2024-04-23T07:50:13.558Z,1004.83
2024-04-23T07:51:13.489Z,1004.89
2024-04-23T07:52:13.477Z,1004.85
2024-04-23T07:53:13.447Z,1004.91
2024-04-23T07:54:13.453Z,1004.90
2024-04-23T07:55:13.415Z,1004.94
2024-04-23T07:56:13.453Z,1004.89
2024-04-23T07:57:13.404Z,1004.91
2024-04-23T07:58:13.379Z,1004.84
2024-04-23T07:59:13.388Z,1004.81
2024-04-23T08:00:13.348Z,1004.85
2024-04-23T08:01:13.424Z,1004.79
2024-04-23T08:02:13.446Z,1004.80
2024-04-23T08:03:13.372Z,1004.80
2024-04-23T08:04:13.349Z,1004.81
2024-04-23T08:05:13.318Z,1004.73
2024-04-23T08:06:13.296Z,1004.83
2024-04-23T08:07:13.262Z,1004.71
2024-04-23T08:08:13.343Z,1004.69
2024-04-23T08:09:13.240Z,1004.74
2024-04-23T08:10:13.231Z,1004.71
2024-04-23T08:11:13.621Z,1004.78
2024-04-23T08:12:13.197Z,1004.79
2024-04-23T08:13:13.179Z,1004.77
2024-04-23T08:14:13.267Z,1004.73
2024-04-23T08:15:14.987Z,1004.75
2024-04-23T08:16:13.145Z,1004.73
2024-04-23T08:17:13.220Z,1004.75
2024-04-23T08:18:13.403Z,1004.45
2024-04-23T08:19:13.112Z,1004.46
2024-04-23T08:20:13.108Z,1004.65
2024-04-23T08:21:13.083Z,1004.38
2024-04-23T08:22:13.107Z,1004.67
2024-04-23T08:23:13.044Z,1004.60
2024-04-23T08:24:13.060Z,1004.62
2024-04-23T08:25:13.033Z,1004.62
2024-04-23T08:26:13.037Z,1004.33
2024-04-23T08:27:12.987Z,1004.38
2024-04-23T08:28:12.988Z,1004.33
2024-04-23T08:29:12.987Z,1004.57
2024-04-23T08:30:13.009Z,1004.60
2024-04-23T08:31:12.984Z,1004.61
2024-04-23T08:32:12.927Z,1004.64
2024-04-23T08:33:13.007Z,1004.73
2024-04-23T08:34:12.913Z,1004.64
2024-04-23T08:35:12.908Z,1004.67
2024-04-23T08:36:12.883Z,1004.71
2024-04-23T08:37:12.873Z,1004.66
2024-04-23T08:38:12.883Z,1004.69
2024-04-23T08:39:12.852Z,1004.63
2024-04-23T08:40:12.820Z,1004.61
2024-04-23T08:41:12.809Z,1004.65
2024-04-23T08:42:12.814Z,1004.66
2024-04-23T08:43:12.782Z,1004.58
2024-04-23T08:44:12.819Z,1004.59
2024-04-23T08:45:12.781Z,1004.59
2024-04-23T08:46:12.741Z,1004.66
2024-04-23T08:47:12.871Z,1004.50
2024-04-23T08:48:12.842Z,1004.61
2024-04-23T08:49:12.714Z,1004.62
2024-04-23T08:50:12.738Z,1004.52
2024-04-23T08:51:12.698Z,1004.31
2024-04-23T08:52:12.664Z,1004.31
2024-04-23T08:53:12.740Z,1004.37
2024-04-23T08:54:12.654Z,1004.32
2024-04-23T08:55:12.623Z,1004.43
2024-04-23T08:56:12.632Z,1004.39
2024-04-23T08:57:12.597Z,1004.56
2024-04-23T08:58:12.614Z,1004.50
2024-04-23T08:59:12.687Z,1004.47
2024-04-23T09:00:12.615Z,1004.49
2024-04-23T09:01:12.648Z,1004.45
2024-04-23T09:02:12.634Z,1004.50
2024-04-23T09:03:12.635Z,1004.48
2024-04-23T09:04:12.572Z,1004.46
2024-04-23T09:05:12.521Z,1004.45
2024-04-23T09:06:12.485Z,1004.51
2024-04-23T09:07:20.905Z,1004.51
2024-04-23T09:08:13.568Z,1004.50
2024-04-23T09:09:12.467Z,1004.46
2024-04-23T09:10:12.433Z,1004.48
2024-04-23T09:11:12.599Z,1004.42
2024-04-23T09:12:12.461Z,1004.42
2024-04-23T09:13:12.416Z,1004.36
2024-04-23T09:14:12.464Z,1004.44
2024-04-23T09:15:12.374Z,1004.41
2024-04-23T09:16:12.356Z,1004.39
2024-04-23T09:17:12.436Z,1004.42
2024-04-23T09:18:12.413Z,1004.34
2024-04-23T09:19:12.310Z,1004.40
2024-04-23T09:20:12.433Z,1004.37
2024-04-23T09:21:12.289Z,1004.33
2024-04-23T09:22:12.283Z,1004.32
2024-04-23T09:23:12.348Z,1004.23
2024-04-23T09:24:12.256Z,1004.28
2024-04-23T09:25:12.247Z,1004.24
2024-04-23T09:26:12.315Z,1004.28
2024-04-23T09:27:12.224Z,1004.28
2024-04-23T09:28:12.233Z,1004.17
2024-04-23T09:29:12.273Z,1004.19
2024-04-23T09:30:12.170Z,1004.22
2024-04-23T09:31:12.150Z,1004.22
2024-04-23T09:32:12.347Z,1004.27
2024-04-23T09:33:12.213Z,1004.22
2024-04-23T09:34:12.568Z,1004.21
2024-04-23T09:35:12.129Z,1004.15
2024-04-23T09:36:12.131Z,1004.19
2024-04-23T09:37:12.110Z,1004.17
2024-04-23T09:38:12.115Z,1004.14
2024-04-23T09:39:12.063Z,1004.23
2024-04-23T09:40:12.048Z,1004.20
2024-04-23T09:41:12.158Z,1004.17
2024-04-23T09:42:12.058Z,1004.18
2024-04-23T09:43:12.002Z,1004.13
2024-04-23T09:44:12.086Z,1004.22
2024-04-23T09:45:11.988Z,1004.20
2024-04-23T09:46:11.989Z,1004.20
2024-04-23T09:47:12.233Z,1004.19
2024-04-23T09:48:12.050Z,1004.11
2024-04-23T09:49:11.921Z,1004.16
2024-04-23T09:50:11.961Z,1004.15
2024-04-23T09:51:11.915Z,1004.19
2024-04-23T09:52:11.886Z,1004.16
2024-04-23T09:53:11.993Z,1004.12
2024-04-23T09:54:11.859Z,1004.10
2024-04-23T09:55:11.876Z,1004.09
2024-04-23T09:56:11.921Z,1004.17
2024-04-23T09:57:11.814Z,1004.13
2024-04-23T09:58:11.803Z,1004.08
2024-04-23T09:59:11.849Z,1004.03
2024-04-23T10:00:11.795Z,1004.07
2024-04-23T10:01:11.852Z,1004.03
2024-04-23T10:02:11.816Z,1003.94
2024-04-23T10:03:13.737Z,1003.99
2024-04-23T10:04:11.769Z,1003.95
2024-04-23T10:05:11.844Z,1003.95
2024-04-23T10:06:11.716Z,1003.98
2024-04-23T10:07:11.689Z,1003.94
2024-04-23T10:08:11.744Z,1003.90
2024-04-23T10:09:11.661Z,1003.90
2024-04-23T10:10:12.579Z,1003.81
2024-04-23T10:11:11.690Z,1003.79
2024-04-23T10:12:11.626Z,1003.81
2024-04-23T10:13:11.612Z,1003.79
2024-04-23T10:14:11.633Z,1003.77
2024-04-23T10:15:11.604Z,1003.76
2024-04-23T10:16:11.583Z,1003.79
2024-04-23T10:17:11.602Z,1003.75
2024-04-23T10:18:11.574Z,1003.64
2024-04-23T10:19:11.553Z,1003.65
2024-04-23T10:20:11.586Z,1003.64
2024-04-23T10:21:11.511Z,1003.67
2024-04-23T10:22:11.497Z,1003.64
2024-04-23T10:23:11.523Z,1003.57
2024-04-23T10:24:11.510Z,1003.60
2024-04-23T10:25:11.479Z,1003.61
2024-04-23T10:26:11.521Z,1003.72
2024-04-23T10:27:11.560Z,1003.61
2024-04-23T10:28:11.448Z,1003.68
2024-04-23T10:29:11.484Z,1003.61
2024-04-23T10:30:11.474Z,1003.61
2024-04-23T10:31:11.398Z,1003.61
2024-04-23T10:32:11.571Z,1003.47
2024-04-23T10:33:11.520Z,1003.58
2024-04-23T10:34:11.375Z,1003.59
2024-04-23T10:35:11.380Z,1003.57
2024-04-23T10:36:11.327Z,1003.61
2024-04-23T10:37:11.322Z,1003.56
2024-04-23T10:38:11.349Z,1003.51
2024-04-23T10:39:11.318Z,1003.50
2024-04-23T10:40:11.307Z,1003.53
2024-04-23T10:41:11.387Z,1003.61
2024-04-23T10:42:11.251Z,1003.45
2024-04-23T10:43:11.245Z,1003.40
2024-04-23T10:44:11.321Z,1003.45
2024-04-23T10:45:11.211Z,1003.39
2024-04-23T10:46:11.205Z,1003.39
2024-04-23T10:47:11.305Z,1003.38
2024-04-23T10:48:11.283Z,1003.40
2024-04-23T10:49:11.196Z,1003.41
2024-04-23T10:50:11.227Z,1003.43
2024-04-23T10:51:11.142Z,1003.31
2024-04-23T10:52:11.121Z,1003.13
2024-04-23T10:53:11.145Z,1003.11
2024-04-23T10:54:12.069Z,1003.02
2024-04-23T10:55:11.079Z,1003.02
2024-04-23T10:56:11.113Z,1003.05
2024-04-23T10:57:11.250Z,1003.28
2024-04-23T10:58:11.037Z,1003.23
2024-04-23T10:59:11.073Z,1003.23
2024-04-23T11:00:11.035Z,1003.16
2024-04-23T11:01:11.176Z,1003.20
2024-04-23T11:02:11.087Z,1003.21
2024-04-23T11:03:11.064Z,1003.12
2024-04-23T11:04:11.024Z,1003.12
2024-04-23T11:05:11.114Z,1003.08
2024-04-23T11:06:14.239Z,1003.06
2024-04-23T11:07:10.921Z,1003.03
2024-04-23T11:08:10.932Z,1003.01
2024-04-23T11:09:10.918Z,1002.99
2024-04-23T11:10:10.905Z,1002.96
2024-04-23T11:11:10.923Z,1002.97
2024-04-23T11:12:11.155Z,1003.00
2024-04-23T11:13:10.867Z,1002.95
2024-04-23T11:14:10.863Z,1002.93
2024-04-23T11:15:10.880Z,1002.93
2024-04-23T11:16:10.869Z,1002.88
2024-04-23T11:17:10.863Z,1002.86
2024-04-23T11:18:13.282Z,1002.81
2024-04-23T11:19:10.788Z,1002.82
2024-04-23T11:20:10.891Z,1002.84
2024-04-23T11:21:10.741Z,1002.77
2024-04-23T11:22:10.741Z,1002.79
2024-04-23T11:23:10.839Z,1002.76
2024-04-23T11:24:11.213Z,1002.74
2024-04-23T11:25:10.690Z,1002.76
2024-04-23T11:26:10.809Z,1002.75
2024-04-23T11:27:10.661Z,1002.81
2024-04-23T11:28:10.697Z,1002.82
2024-04-23T11:29:10.793Z,1002.78
2024-04-23T11:30:12.608Z,1002.75
2024-04-23T11:31:10.629Z,1002.72
2024-04-23T11:32:10.805Z,1002.68
2024-04-23T11:33:10.751Z,1002.66
2024-04-23T11:34:10.573Z,1002.71
2024-04-23T11:35:10.634Z,1002.67
2024-04-23T11:36:13.219Z,1002.71
2024-04-23T11:37:10.570Z,1002.62
2024-04-23T11:38:10.606Z,1002.62
2024-04-23T11:39:10.574Z,1002.62
2024-04-23T11:40:10.515Z,1002.59
2024-04-23T11:41:10.667Z,1002.55
2024-04-23T11:42:12.432Z,1002.58
2024-04-23T11:43:10.458Z,1002.57
2024-04-23T11:44:10.553Z,1002.59
2024-04-23T11:45:10.445Z,1002.54
2024-04-23T11:46:10.421Z,1002.54
2024-04-23T11:47:10.498Z,1002.54
2024-04-23T11:48:10.464Z,1002.51
2024-04-23T11:49:10.386Z,1002.57
2024-04-23T11:50:10.481Z,1002.44
2024-04-23T11:51:10.378Z,1002.44
2024-04-23T11:52:10.368Z,1002.46
2024-04-23T11:53:10.342Z,1002.38
2024-04-23T11:54:10.432Z,1002.44
2024-04-23T11:55:10.327Z,1002.42
2024-04-23T11:56:10.320Z,1002.40
2024-04-23T11:57:10.303Z,1002.40
2024-04-23T11:58:10.267Z,1002.40
2024-04-23T11:59:10.316Z,1002.33
2024-04-23T12:00:10.250Z,1002.35
2024-04-23T12:01:10.473Z,1002.29
2024-04-23T12:02:10.240Z,1002.28
2024-04-23T12:03:10.231Z,1002.25
2024-04-23T12:04:10.283Z,1002.22
2024-04-23T12:05:10.341Z,1002.21